Time;durP1;ratioP1;P1;durP2;ratioP2;P2;SDS_P1;SDS_P2;PMS_P1;PMS_P2;Temp;Humidity;BMP_temperature;BMP_pressure;BME280_temperature;BME280_humidity;BME280_pressure;Samples;Min_cycle;Max_cycle;Signal;HPM_P1;HPM_P2
2022/11/27 00:00:39;;;;;;;13.30;2.78;;;;;;;;;;6196491;23;20008;-76
2022/11/27 00:03:06;;;;;;;6.78;1.75;;;;;;;;;;6196260;23;20005;-76
2022/11/27 00:05:32;;;;;;;5.22;1.42;;;;;;;;;;6194386;23;20074;-76
2022/11/27 00:07:58;;;;;;;5.53;1.23;;;;;;;;;;6196793;23;20461;-76
2022/11/27 00:10:24;;;;;;;7.65;1.92;;;;;;;;;;6194854;23;20015;-76
2022/11/27 00:12:50;;;;;;;6.25;1.85;;;;;;;;;;6200271;23;20004;-75
2022/11/27 00:15:17;;;;;;;6.00;1.75;;;;;;;;;;6201510;23;20001;-75
2022/11/27 00:17:44;;;;;;;6.68;1.38;;;;;;;;;;6202713;23;20009;-75
2022/11/27 00:20:10;;;;;;;5.30;1.65;;;;;;;;;;6199116;23;20437;-75
2022/11/27 00:22:36;;;;;;;13.13;2.35;;;;;;;;;;6197299;23;20016;-75
2022/11/27 00:25:02;;;;;;;15.05;2.55;;;;;;;;;;6197285;23;20138;-75
2022/11/27 00:27:28;;;;;;;7.75;2.03;;;;;;;;;;6197189;23;20020;-75
2022/11/27 00:29:54;;;;;;;9.82;2.25;;;;;;;;;;6198520;23;20361;-75
2022/11/27 00:32:21;;;;;;;10.00;2.53;;;;;;;;;;6198938;23;20009;-75
2022/11/27 00:34:47;;;;;;;9.50;2.05;;;;;;;;;;6204526;23;20020;-75
2022/11/27 00:37:13;;;;;;;9.40;2.53;;;;;;;;;;6203623;23;20093;-75
2022/11/27 00:39:40;;;;;;;8.65;2.53;;;;;;;;;;6205323;23;20001;-75
2022/11/27 00:42:06;;;;;;;8.27;2.47;;;;;;;;;;6204355;23;20046;-74
2022/11/27 00:44:33;;;;;;;12.48;3.28;;;;;;;;;;6205450;23;20107;-75
2022/11/27 00:46:59;;;;;;;6.60;2.03;;;;;;;;;;6206291;23;20032;-76
2022/11/27 00:49:25;;;;;;;8.32;2.30;;;;;;;;;;6205495;23;20001;-76
2022/11/27 00:51:51;;;;;;;13.60;2.95;;;;;;;;;;6203125;23;20013;-76
2022/11/27 00:54:17;;;;;;;15.90;2.47;;;;;;;;;;6204187;23;20001;-75
2022/11/27 00:56:44;;;;;;;13.65;2.75;;;;;;;;;;6205349;23;20564;-75
2022/11/27 00:59:10;;;;;;;8.00;2.30;;;;;;;;;;6201847;23;20513;-75
2022/11/27 01:01:38;;;;;;;11.13;2.13;;;;;;;;;;6205086;23;20001;-75
2022/11/27 01:04:05;;;;;;;9.38;2.30;;;;;;;;;;6203820;23;20008;-75
2022/11/27 01:06:31;;;;;;;8.13;2.45;;;;;;;;;;6205796;23;19997;-75
2022/11/27 01:08:58;;;;;;;8.48;2.13;;;;;;;;;;6205170;23;20079;-75
2022/11/27 01:11:26;;;;;;;5.68;1.50;;;;;;;;;;6203678;23;20019;-75
2022/11/27 01:13:53;;;;;;;9.07;2.10;;;;;;;;;;6206045;23;20000;-75
2022/11/27 01:16:20;;;;;;;10.77;1.75;;;;;;;;;;6205176;23;20008;-76
2022/11/27 01:18:47;;;;;;;6.85;1.85;;;;;;;;;;6203180;23;20058;-76
2022/11/27 01:21:15;;;;;;;10.43;2.10;;;;;;;;;;6205549;23;20008;-75
2022/11/27 01:23:41;;;;;;;13.48;2.38;;;;;;;;;;6205370;23;20179;-75
2022/11/27 01:26:08;;;;;;;7.93;2.05;;;;;;;;;;6204309;23;20000;-75
2022/11/27 01:28:34;;;;;;;15.18;2.10;;;;;;;;;;6201078;23;20005;-75
2022/11/27 01:31:10;;;;;;;9.70;1.60;;;;;;;;;;6201571;23;20055;-74
2022/11/27 01:33:36;;;;;;;6.88;1.92;;;;;;;;;;6200577;23;20013;-75
2022/11/27 01:36:04;;;;;;;8.85;1.50;;;;;;;;;;6206414;23;20031;-75
2022/11/27 01:38:31;;;;;;;7.20;1.80;;;;;;;;;;6207278;23;20448;-76
2022/11/27 01:40:58;;;;;;;7.05;1.33;;;;;;;;;;6204549;23;20004;-76
2022/11/27 01:43:42;;;;;;;7.22;1.60;;;;;;;;;;6208165;23;20418;-75
2022/11/27 01:46:32;;;;;;;7.38;1.73;;;;;;;;;;6207813;23;20005;-75
2022/11/27 01:49:10;;;;;;;6.78;1.83;;;;;;;;;;6195924;23;20015;-75
2022/11/27 01:52:09;;;;;;;14.82;2.05;;;;;;;;;;6203634;23;20381;-75
2022/11/27 01:54:47;;;;;;;11.07;2.00;;;;;;;;;;6156860;23;20054;-75
2022/11/27 01:57:16;;;;;;;3.72;1.25;;;;;;;;;;6206013;23;20008;-75
2022/11/27 01:59:42;;;;;;;7.25;1.73;;;;;;;;;;6207043;23;20529;-75
2022/11/27 02:02:09;;;;;;;8.32;1.58;;;;;;;;;;6205535;23;20170;-75
2022/11/27 02:04:35;;;;;;;6.65;1.63;;;;;;;;;;6201814;23;20009;-75
2022/11/27 02:07:01;;;;;;;6.30;1.80;;;;;;;;;;6204514;23;20143;-76
2022/11/27 02:09:29;;;;;;;7.07;2.00;;;;;;;;;;6204390;23;20003;-75
2022/11/27 02:11:59;;;;;;;5.22;2.00;;;;;;;;;;6204029;23;20023;-74
2022/11/27 02:14:38;;;;;;;8.75;1.75;;;;;;;;;;6201146;23;20008;-75
2022/11/27 02:17:10;;;;;;;8.13;1.80;;;;;;;;;;6203895;23;20015;-75
2022/11/27 02:19:55;;;;;;;8.27;1.63;;;;;;;;;;6204402;23;20003;-75
2022/11/27 02:22:27;;;;;;;6.28;1.42;;;;;;;;;;6202234;23;20019;-75
2022/11/27 02:25:06;;;;;;;5.97;1.38;;;;;;;;;;6204266;23;20062;-75
2022/11/27 02:27:47;;;;;;;8.15;2.03;;;;;;;;;;6202518;23;20005;-74
2022/11/27 02:30:13;;;;;;;7.47;1.58;;;;;;;;;;6201890;23;20000;-75
2022/11/27 02:32:45;;;;;;;10.88;2.22;;;;;;;;;;6203668;23;20008;-75
2022/11/27 02:35:12;;;;;;;;;;;;;;;;;;6204327;23;20023;-75
2022/11/27 02:37:57;;;;;;;9.95;2.70;;;;;;;;;;6203964;23;19907;-75
2022/11/27 02:40:23;;;;;;;13.00;2.78;;;;;;;;;;6201477;23;20477;-75
2022/11/27 02:42:52;;;;;;;10.88;2.28;;;;;;;;;;6204420;23;20384;-75
2022/11/27 02:45:22;;;;;;;9.15;1.90;;;;;;;;;;6203512;23;20005;-75
2022/11/27 02:47:50;;;;;;;11.20;1.73;;;;;;;;;;6202182;23;20011;-76
2022/11/27 02:50:21;;;;;;;10.45;1.75;;;;;;;;;;6203888;23;20001;-75
2022/11/27 02:52:49;;;;;;;9.25;2.20;;;;;;;;;;6202570;23;20091;-75
2022/11/27 02:55:17;;;;;;;9.35;1.55;;;;;;;;;;6202174;23;20008;-75
2022/11/27 02:57:43;;;;;;;5.43;1.45;;;;;;;;;;6203665;23;20009;-75
2022/11/27 03:00:10;;;;;;;10.40;2.20;;;;;;;;;;6204070;23;20003;-75
2022/11/27 03:02:40;;;;;;;8.05;1.88;;;;;;;;;;6203982;22;20009;-75
2022/11/27 03:05:09;;;;;;;13.23;1.65;;;;;;;;;;6201914;23;20008;-75
2022/11/27 03:07:52;;;;;;;13.10;2.38;;;;;;;;;;6202190;23;20005;-75
2022/11/27 03:10:41;;;;;;;10.77;1.65;;;;;;;;;;6201765;23;20601;-76
2022/11/27 03:13:07;;;;;;;7.57;2.08;;;;;;;;;;6201803;23;20118;-76
2022/11/27 03:15:54;;;;;;;5.93;1.60;;;;;;;;;;6201820;23;20103;-76
2022/11/27 03:18:26;;;;;;;5.38;1.90;;;;;;;;;;6202489;23;20017;-76
2022/11/27 03:21:00;;;;;;;7.25;1.85;;;;;;;;;;6201675;23;20004;-76
2022/11/27 03:23:27;;;;;;;6.85;2.17;;;;;;;;;;6201350;23;20437;-76
2022/11/27 03:25:53;;;;;;;6.22;1.48;;;;;;;;;;6201174;23;20013;-75
2022/11/27 03:28:20;;;;;;;10.18;1.98;;;;;;;;;;6201371;23;20008;-76
2022/11/27 03:30:46;;;;;;;7.60;1.88;;;;;;;;;;6201341;23;20024;-75
2022/11/27 03:33:12;;;;;;;9.40;1.50;;;;;;;;;;6195952;23;20500;-76
2022/11/27 03:35:38;;;;;;;4.80;1.20;;;;;;;;;;6198213;23;20005;-76
2022/11/27 03:38:04;;;;;;;10.27;1.30;;;;;;;;;;6203173;23;20005;-76
2022/11/27 03:40:36;;;;;;;10.45;2.20;;;;;;;;;;6202684;23;20005;-76
2022/11/27 03:43:12;;;;;;;11.00;1.98;;;;;;;;;;6201263;23;20600;-75
2022/11/27 03:45:43;;;;;;;8.80;1.45;;;;;;;;;;6202808;23;20067;-76
2022/11/27 03:48:18;;;;;;;7.78;2.60;;;;;;;;;;6201380;23;20311;-76
2022/11/27 03:50:53;;;;;;;9.38;2.05;;;;;;;;;;6201580;23;20005;-75
2022/11/27 03:53:26;;;;;;;11.35;2.03;;;;;;;;;;6202649;23;20036;-76
2022/11/27 03:55:58;;;;;;;6.57;1.35;;;;;;;;;;6201440;23;20498;-76
2022/11/27 03:58:33;;;;;;;11.35;1.77;;;;;;;;;;6202622;23;20372;-76
2022/11/27 04:00:59;;;;;;;17.25;2.47;;;;;;;;;;6202873;23;20762;-76
2022/11/27 04:03:28;;;;;;;6.40;1.27;;;;;;;;;;6203264;23;20000;-77
2022/11/27 04:05:54;;;;;;;7.15;1.48;;;;;;;;;;6200613;23;20496;-76
2022/11/27 04:08:20;;;;;;;5.13;1.08;;;;;;;;;;6201606;23;20583;-76
2022/11/27 04:10:46;;;;;;;19.95;2.42;;;;;;;;;;6201253;23;20009;-76
2022/11/27 04:13:13;;;;;;;4.85;1.00;;;;;;;;;;6197722;23;20448;-76
2022/11/27 04:15:39;;;;;;;7.78;1.52;;;;;;;;;;6197357;23;20012;-76
2022/11/27 04:18:05;;;;;;;7.15;1.20;;;;;;;;;;6196745;23;20140;-76
2022/11/27 04:20:31;;;;;;;5.95;2.28;;;;;;;;;;6194438;23;20358;-76
2022/11/27 04:22:58;;;;;;;6.47;1.65;;;;;;;;;;6194693;23;20028;-76
2022/11/27 04:25:24;;;;;;;11.57;1.30;;;;;;;;;;6200293;23;20000;-76
2022/11/27 04:27:50;;;;;;;6.35;1.40;;;;;;;;;;6198498;23;20814;-75
2022/11/27 04:30:17;;;;;;;8.55;1.58;;;;;;;;;;6199088;23;20055;-76
2022/11/27 04:32:43;;;;;;;7.50;1.25;;;;;;;;;;6198228;23;20008;-76
2022/11/27 04:35:09;;;;;;;13.43;2.20;;;;;;;;;;6199665;23;20409;-76
2022/11/27 04:37:36;;;;;;;10.85;1.27;;;;;;;;;;6200154;23;20066;-76
2022/11/27 04:40:02;;;;;;;7.82;1.95;;;;;;;;;;6200552;23;19981;-76
2022/11/27 04:42:28;;;;;;;6.75;1.30;;;;;;;;;;6197848;23;20374;-76
2022/11/27 04:44:55;;;;;;;11.95;2.45;;;;;;;;;;6198076;23;20034;-75
2022/11/27 04:47:21;;;;;;;13.15;2.38;;;;;;;;;;6198025;23;20074;-76
2022/11/27 04:49:47;;;;;;;8.35;1.88;;;;;;;;;;6199877;23;20023;-76
2022/11/27 04:52:13;;;;;;;11.85;2.22;;;;;;;;;;6199845;23;20023;-76
2022/11/27 04:54:40;;;;;;;6.82;1.80;;;;;;;;;;6200301;23;20004;-76
2022/11/27 04:57:06;;;;;;;5.95;1.50;;;;;;;;;;6199906;23;20011;-77
2022/11/27 04:59:32;;;;;;;13.57;1.85;;;;;;;;;;6200944;23;20284;-76
2022/11/27 05:01:58;;;;;;;9.27;1.70;;;;;;;;;;6197951;23;20004;-76
2022/11/27 05:04:24;;;;;;;9.27;1.63;;;;;;;;;;6189333;23;20005;-77
2022/11/27 05:06:50;;;;;;;14.52;1.85;;;;;;;;;;6176118;23;20012;-76
2022/11/27 05:09:17;;;;;;;6.72;1.30;;;;;;;;;;6201326;23;20015;-75
2022/11/27 05:11:43;;;;;;;18.00;2.10;;;;;;;;;;6197951;23;20008;-77
2022/11/27 05:14:20;;;;;;;16.88;2.60;;;;;;;;;;6201431;23;20188;-76
2022/11/27 05:16:48;;;;;;;7.57;1.92;;;;;;;;;;6201781;22;20011;-77
2022/11/27 05:19:14;;;;;;;10.10;1.83;;;;;;;;;;6198333;23;20008;-77
2022/11/27 05:21:41;;;;;;;12.10;2.25;;;;;;;;;;6196560;23;20016;-77
2022/11/27 05:24:07;;;;;;;8.57;1.77;;;;;;;;;;6199741;23;20031;-76
2022/11/27 05:26:34;;;;;;;7.88;1.88;;;;;;;;;;6201732;23;20463;-75
2022/11/27 05:29:00;;;;;;;9.63;1.67;;;;;;;;;;6198647;23;20011;-77
2022/11/27 05:31:26;;;;;;;8.55;1.70;;;;;;;;;;6199483;23;20399;-76
2022/11/27 05:33:52;;;;;;;11.05;1.67;;;;;;;;;;6199769;23;20431;-76
2022/11/27 05:36:19;;;;;;;9.50;1.65;;;;;;;;;;6200070;23;20008;-76
2022/11/27 05:38:45;;;;;;;6.90;2.05;;;;;;;;;;6200632;23;20057;-76
2022/11/27 05:41:11;;;;;;;9.02;1.92;;;;;;;;;;6200056;23;20016;-76
2022/11/27 05:43:37;;;;;;;9.63;2.00;;;;;;;;;;6202060;23;19996;-75
2022/11/27 05:46:04;;;;;;;7.07;2.17;;;;;;;;;;6202253;23;20369;-76
2022/11/27 05:48:31;;;;;;;6.35;1.10;;;;;;;;;;6203579;22;20073;-76
2022/11/27 05:50:57;;;;;;;4.82;1.38;;;;;;;;;;6203979;23;20013;-76
2022/11/27 05:53:23;;;;;;;10.15;1.58;;;;;;;;;;6200217;23;20447;-76
2022/11/27 05:55:49;;;;;;;4.05;1.95;;;;;;;;;;6204270;23;20008;-76
2022/11/27 05:58:15;;;;;;;12.98;1.88;;;;;;;;;;6203835;23;19997;-76
2022/11/27 06:00:41;;;;;;;6.13;1.70;;;;;;;;;;6203642;23;20000;-76
2022/11/27 06:03:07;;;;;;;5.45;1.77;;;;;;;;;;6204499;23;20453;-75
2022/11/27 06:05:33;;;;;;;5.75;1.55;;;;;;;;;;6202350;23;20027;-76
2022/11/27 06:08:00;;;;;;;8.98;1.40;;;;;;;;;;6203734;23;20090;-76
2022/11/27 06:10:26;;;;;;;12.38;2.25;;;;;;;;;;6199466;23;20027;-76
2022/11/27 06:12:52;;;;;;;9.57;2.50;;;;;;;;;;6196830;23;20066;-77
2022/11/27 06:15:18;;;;;;;8.77;1.83;;;;;;;;;;6195378;23;20008;-76
2022/11/27 06:17:44;;;;;;;12.43;1.48;;;;;;;;;;6196928;23;20008;-76
2022/11/27 06:20:10;;;;;;;9.88;1.70;;;;;;;;;;6196180;23;20009;-76
2022/11/27 06:22:36;;;;;;;5.53;1.42;;;;;;;;;;6196339;23;20084;-76
2022/11/27 06:25:02;;;;;;;9.95;2.00;;;;;;;;;;6196984;23;20008;-77
2022/11/27 06:27:32;;;;;;;7.68;2.50;;;;;;;;;;6195174;23;20028;-76
2022/11/27 06:29:58;;;;;;;5.32;1.38;;;;;;;;;;6197536;22;20005;-76
2022/11/27 06:32:24;;;;;;;9.90;2.17;;;;;;;;;;6194120;23;20685;-75
2022/11/27 06:34:50;;;;;;;8.05;2.10;;;;;;;;;;6197020;23;20001;-76
2022/11/27 06:37:16;;;;;;;9.98;1.73;;;;;;;;;;6195715;23;20523;-76
2022/11/27 06:39:43;;;;;;;15.65;2.72;;;;;;;;;;6196043;23;20682;-76
2022/11/27 06:42:09;;;;;;;10.90;2.05;;;;;;;;;;6194876;23;19997;-76
2022/11/27 06:44:35;;;;;;;8.27;1.92;;;;;;;;;;6196928;23;20399;-76
2022/11/27 06:47:01;;;;;;;11.88;1.77;;;;;;;;;;6195932;23;20015;-76
2022/11/27 06:49:27;;;;;;;7.78;1.63;;;;;;;;;;6197213;23;20072;-75
2022/11/27 06:51:53;;;;;;;14.85;1.77;;;;;;;;;;6196905;23;20028;-76
2022/11/27 06:54:19;;;;;;;16.20;2.25;;;;;;;;;;6193558;23;20334;-76
2022/11/27 06:56:48;;;;;;;9.27;2.10;;;;;;;;;;6197745;23;20000;-75
2022/11/27 06:59:14;;;;;;;8.82;2.17;;;;;;;;;;6197159;23;20071;-76
2022/11/27 07:01:41;;;;;;;12.70;1.98;;;;;;;;;;6197548;23;20539;-76
2022/11/27 07:04:10;;;;;;;7.28;1.73;;;;;;;;;;6195879;23;20009;-76
2022/11/27 07:06:36;;;;;;;9.55;1.92;;;;;;;;;;6195187;23;20008;-76
2022/11/27 07:09:03;;;;;;;9.90;1.55;;;;;;;;;;6196210;23;20015;-76
2022/11/27 07:11:30;;;;;;;9.10;1.60;;;;;;;;;;6195604;23;20384;-76
2022/11/27 07:13:58;;;;;;;11.82;1.98;;;;;;;;;;6196546;23;20011;-76
2022/11/27 07:16:24;;;;;;;11.68;2.20;;;;;;;;;;6195797;23;20005;-77
2022/11/27 07:18:52;;;;;;;11.63;2.05;;;;;;;;;;6196956;23;20139;-77
2022/11/27 07:21:18;;;;;;;24.85;2.50;;;;;;;;;;6195808;23;20004;-76
2022/11/27 07:23:45;;;;;;;9.00;1.90;;;;;;;;;;6194642;23;20008;-76
2022/11/27 07:26:21;;;;;;;8.27;2.17;;;;;;;;;;6197291;23;20147;-76
2022/11/27 07:28:48;;;;;;;11.05;1.95;;;;;;;;;;6196811;23;20381;-76
2022/11/27 07:31:15;;;;;;;7.25;1.65;;;;;;;;;;6194560;23;20405;-76
2022/11/27 07:33:41;;;;;;;9.38;2.33;;;;;;;;;;6194477;23;20401;-76
2022/11/27 07:36:11;;;;;;;14.60;2.75;;;;;;;;;;6196618;23;20530;-76
2022/11/27 07:38:37;;;;;;;12.50;1.80;;;;;;;;;;6197039;23;20004;-77
2022/11/27 07:41:04;;;;;;;9.32;2.28;;;;;;;;;;6195843;23;20034;-76
2022/11/27 07:43:31;;;;;;;12.93;2.00;;;;;;;;;;6195310;23;20058;-76
2022/11/27 07:45:57;;;;;;;14.88;2.10;;;;;;;;;;6196570;23;20016;-77
2022/11/27 07:48:23;;;;;;;10.00;1.92;;;;;;;;;;6196150;23;20368;-76
2022/11/27 07:50:49;;;;;;;14.27;2.47;;;;;;;;;;6195449;23;20008;-76
2022/11/27 07:53:15;;;;;;;7.10;2.22;;;;;;;;;;6192401;23;20001;-77
2022/11/27 07:55:42;;;;;;;11.82;2.22;;;;;;;;;;6196766;23;20011;-76
2022/11/27 07:58:08;;;;;;;8.35;2.10;;;;;;;;;;6196251;23;20453;-77
2022/11/27 08:00:35;;;;;;;15.13;2.95;;;;;;;;;;6195857;23;20005;-76
2022/11/27 08:03:01;;;;;;;10.02;2.58;;;;;;;;;;6196337;23;20023;-76
2022/11/27 08:05:27;;;;;;;12.82;2.45;;;;;;;;;;6195008;23;20007;-77
2022/11/27 08:07:54;;;;;;;15.15;3.45;;;;;;;;;;6194041;23;20009;-77
2022/11/27 08:10:20;;;;;;;13.52;2.75;;;;;;;;;;6196167;23;20011;-76
2022/11/27 08:12:46;;;;;;;13.85;3.00;;;;;;;;;;6195838;23;20009;-77
2022/11/27 08:15:12;;;;;;;13.50;2.88;;;;;;;;;;6194364;23;20005;-77
2022/11/27 08:17:39;;;;;;;16.63;2.65;;;;;;;;;;6196267;23;20455;-76
2022/11/27 08:20:06;;;;;;;14.80;2.55;;;;;;;;;;6194130;23;20000;-77
2022/11/27 08:22:32;;;;;;;11.65;2.38;;;;;;;;;;6195465;23;20016;-77
2022/11/27 08:24:58;;;;;;;12.70;3.40;;;;;;;;;;6196156;23;20114;-77
2022/11/27 08:27:24;;;;;;;9.82;2.50;;;;;;;;;;6195516;23;20001;-76
2022/11/27 08:29:51;;;;;;;13.70;2.65;;;;;;;;;;6196138;23;20009;-77
2022/11/27 08:32:17;;;;;;;11.90;2.85;;;;;;;;;;6191820;23;20040;-77
2022/11/27 08:34:43;;;;;;;12.57;2.83;;;;;;;;;;6196610;23;20015;-77
2022/11/27 08:37:09;;;;;;;13.07;2.80;;;;;;;;;;6196114;23;20005;-76
2022/11/27 08:39:35;;;;;;;12.43;2.78;;;;;;;;;;6195736;23;19993;-76
2022/11/27 08:42:01;;;;;;;11.13;2.60;;;;;;;;;;6196394;23;20176;-77
2022/11/27 08:44:27;;;;;;;7.10;2.45;;;;;;;;;;6193467;23;20009;-76
2022/11/27 08:46:54;;;;;;;10.02;3.28;;;;;;;;;;6196484;23;20051;-82
2022/11/27 08:49:20;;;;;;;8.00;2.45;;;;;;;;;;6200423;23;20016;-84
2022/11/27 08:51:46;;;;;;;11.05;3.05;;;;;;;;;;6199484;23;20024;-81
2022/11/27 08:54:12;;;;;;;14.75;3.28;;;;;;;;;;6202199;23;20039;-83
2022/11/27 08:56:38;;;;;;;9.30;2.17;;;;;;;;;;6199470;23;20012;-79
2022/11/27 08:59:04;;;;;;;10.85;2.55;;;;;;;;;;6198630;23;20005;-77
2022/11/27 09:01:31;;;;;;;7.90;2.15;;;;;;;;;;6198699;23;20013;-76
2022/11/27 09:03:58;;;;;;;11.65;3.15;;;;;;;;;;6198597;23;20001;-76
2022/11/27 09:06:28;;;;;;;6.97;1.98;;;;;;;;;;6198091;23;20063;-77
2022/11/27 09:08:59;;;;;;;9.82;2.97;;;;;;;;;;6199501;23;20033;-77
2022/11/27 09:11:25;;;;;;;6.03;1.90;;;;;;;;;;6187358;23;20112;-77
2022/11/27 09:13:51;;;;;;;14.00;2.50;;;;;;;;;;6199559;23;20693;-77
2022/11/27 09:16:18;;;;;;;7.63;2.33;;;;;;;;;;6199821;23;19996;-77
2022/11/27 09:18:45;;;;;;;9.13;2.28;;;;;;;;;;6200473;23;20055;-77
2022/11/27 09:21:12;;;;;;;8.68;1.73;;;;;;;;;;6198279;23;20507;-77
2022/11/27 09:23:38;;;;;;;6.90;1.50;;;;;;;;;;6199524;23;20028;-77
2022/11/27 09:26:06;;;;;;;9.15;2.88;;;;;;;;;;6197941;23;20087;-77
2022/11/27 09:28:32;;;;;;;9.52;2.15;;;;;;;;;;6198747;23;20435;-76
2022/11/27 09:31:00;;;;;;;9.43;1.98;;;;;;;;;;6198449;23;20314;-76
2022/11/27 09:33:27;;;;;;;8.18;2.40;;;;;;;;;;6198590;23;20011;-76
2022/11/27 09:35:53;;;;;;;11.57;2.00;;;;;;;;;;6193728;23;20677;-78
2022/11/27 09:38:20;;;;;;;5.95;2.17;;;;;;;;;;6196175;23;20473;-78
2022/11/27 09:40:49;;;;;;;9.27;2.03;;;;;;;;;;6194077;23;20004;-77
2022/11/27 09:43:17;;;;;;;10.18;2.35;;;;;;;;;;6193949;23;20012;-77
2022/11/27 09:45:50;;;;;;;7.43;1.80;;;;;;;;;;6194785;22;20032;-76
2022/11/27 09:48:23;;;;;;;10.40;2.67;;;;;;;;;;6197763;23;20000;-76
2022/11/27 09:50:52;;;;;;;12.30;2.63;;;;;;;;;;6196858;22;20651;-77
2022/11/27 09:53:18;;;;;;;8.75;2.38;;;;;;;;;;6197966;22;20367;-77
2022/11/27 09:55:45;;;;;;;10.38;2.55;;;;;;;;;;6193943;23;20084;-77
2022/11/27 09:58:17;;;;;;;7.30;1.90;;;;;;;;;;6196459;23;20012;-77
2022/11/27 10:00:44;;;;;;;6.30;1.83;;;;;;;;;;6198571;23;20012;-78
2022/11/27 10:03:13;;;;;;;10.45;2.88;;;;;;;;;;6195784;23;20008;-77
2022/11/27 10:05:47;;;;;;;7.32;2.72;;;;;;;;;;6195975;23;20538;-77
2022/11/27 10:08:33;;;;;;;13.43;2.20;;;;;;;;;;6195123;23;19997;-77
2022/11/27 10:11:12;;;;;;;9.73;1.90;;;;;;;;;;6151069;23;20008;-76
2022/11/27 10:13:45;;;;;;;11.18;1.88;;;;;;;;;;6198855;23;20001;-76
2022/11/27 10:16:19;;;;;;;7.10;2.08;;;;;;;;;;6202216;23;20027;-77
2022/11/27 10:18:54;;;;;;;12.27;1.95;;;;;;;;;;6194842;23;20009;-77
2022/11/27 10:21:30;;;;;;;9.85;2.42;;;;;;;;;;6196733;23;20688;-77
2022/11/27 10:24:01;;;;;;;8.68;1.67;;;;;;;;;;6197691;23;20016;-77
2022/11/27 10:26:31;;;;;;;10.00;2.00;;;;;;;;;;6195584;23;20036;-77
2022/11/27 10:29:03;;;;;;;12.23;1.98;;;;;;;;;;6195212;23;19996;-76
2022/11/27 10:31:32;;;;;;;9.88;2.55;;;;;;;;;;6198280;23;20124;-76
2022/11/27 10:34:04;;;;;;;7.38;2.55;;;;;;;;;;6198900;23;20004;-76
2022/11/27 10:36:34;;;;;;;10.13;2.15;;;;;;;;;;6201621;23;20004;-77
2022/11/27 10:39:01;;;;;;;9.15;2.30;;;;;;;;;;6198838;23;20008;-77
2022/11/27 10:41:43;;;;;;;6.70;1.90;;;;;;;;;;6194495;23;20087;-77
2022/11/27 10:44:30;;;;;;;7.45;1.80;;;;;;;;;;6197409;23;20453;-77
2022/11/27 10:46:59;;;;;;;7.00;2.10;;;;;;;;;;6195895;23;20013;-77
2022/11/27 10:55:28;;;;;;;4.90;2.13;;;;;;;;;;6197615;23;20027;-92
2022/11/27 10:58:29;;;;;;;5.43;1.92;;;;;;;;;;6171477;23;20472;-91
2022/11/27 11:01:03;;;;;;;6.55;2.10;;;;;;;;;;6176319;23;20111;-93
2022/11/27 11:03:29;;;;;;;6.40;2.08;;;;;;;;;;6174843;23;20333;-93
2022/11/27 11:06:04;;;;;;;6.53;1.92;;;;;;;;;;6173315;23;20911;-93
2022/11/27 11:08:31;;;;;;;9.18;2.05;;;;;;;;;;6176033;23;20012;-93
2022/11/27 11:11:01;;;;;;;5.13;1.70;;;;;;;;;;6175600;23;20244;-92
2022/11/27 11:13:49;;;;;;;5.63;1.90;;;;;;;;;;6174878;23;20314;-92
2022/11/27 11:16:22;;;;;;;7.50;1.75;;;;;;;;;;6175485;23;20004;-92
2022/11/27 11:18:49;;;;;;;8.95;1.77;;;;;;;;;;6174779;23;20019;-93
2022/11/27 11:21:22;;;;;;;5.70;1.83;;;;;;;;;;6176567;23;20009;-93
2022/11/27 11:27:44;;;;;;;6.47;1.80;;;;;;;;;;6147074;23;20009;-94
2022/11/27 11:33:53;;;;;;;4.18;1.70;;;;;;;;;;6026538;23;20292;-94
2022/11/27 11:36:37;;;;;;;6.93;2.15;;;;;;;;;;6031049;23;20090;-94
2022/11/27 11:39:34;;;;;;;7.22;2.00;;;;;;;;;;6029282;23;20018;-94
2022/11/27 11:42:01;;;;;;;5.93;2.10;;;;;;;;;;6022580;23;20067;-92
2022/11/27 11:44:53;;;;;;;5.63;2.20;;;;;;;;;;6171918;23;20016;-95
2022/11/27 11:47:27;;;;;;;6.47;1.95;;;;;;;;;;6155207;23;20151;-92
2022/11/27 11:49:56;;;;;;;7.53;1.98;;;;;;;;;;6175769;23;20015;-94
2022/11/27 11:52:35;;;;;;;8.48;2.55;;;;;;;;;;6173843;23;20275;-92
2022/11/27 11:55:25;;;;;;;4.68;2.28;;;;;;;;;;6170063;23;20092;-94
2022/11/27 11:57:57;;;;;;;10.68;2.55;;;;;;;;;;6173511;23;20192;-93
2022/11/27 12:00:25;;;;;;;10.38;4.05;;;;;;;;;;6169090;23;20005;-93
2022/11/27 12:03:10;;;;;;;9.02;2.85;;;;;;;;;;6171190;23;20016;-90
2022/11/27 12:05:51;;;;;;;7.90;2.78;;;;;;;;;;6170926;23;20009;-91
2022/11/27 12:08:31;;;;;;;8.02;2.58;;;;;;;;;;6171442;23;20009;-90
2022/11/27 12:10:57;;;;;;;11.15;2.50;;;;;;;;;;6169264;23;20017;-90
2022/11/27 12:13:37;;;;;;;6.85;2.35;;;;;;;;;;6171131;23;20005;-90
2022/11/27 12:16:05;;;;;;;6.20;2.97;;;;;;;;;;6170627;23;20231;-90
2022/11/27 12:18:40;;;;;;;10.35;3.63;;;;;;;;;;6168803;23;20011;-89
2022/11/27 12:21:06;;;;;;;11.63;3.65;;;;;;;;;;6171029;23;20180;-90
2022/11/27 12:23:38;;;;;;;10.98;3.40;;;;;;;;;;6171566;23;20032;-91
2022/11/27 12:26:10;;;;;;;7.18;3.00;;;;;;;;;;6170496;23;20020;-90
2022/11/27 12:28:37;;;;;;;6.30;2.53;;;;;;;;;;6171482;23;20032;-88
2022/11/27 12:31:22;;;;;;;9.30;2.40;;;;;;;;;;6171069;23;20040;-92
2022/11/27 12:34:04;;;;;;;9.60;2.90;;;;;;;;;;6171117;23;20040;-94
2022/11/27 12:36:44;;;;;;;8.43;2.50;;;;;;;;;;6177417;23;20032;-95
2022/11/27 12:39:13;;;;;;;8.65;2.50;;;;;;;;;;6172384;23;20051;-93
2022/11/27 12:41:58;;;;;;;9.35;2.42;;;;;;;;;;6171143;23;20049;-94
2022/11/27 12:44:27;;;;;;;10.80;3.70;;;;;;;;;;6170375;23;20067;-94
2022/11/27 12:47:02;;;;;;;8.50;2.88;;;;;;;;;;6172236;23;20085;-95
2022/11/27 12:49:28;;;;;;;14.23;3.60;;;;;;;;;;6174010;23;20009;-95
2022/11/27 12:52:14;;;;;;;12.00;3.08;;;;;;;;;;6171991;23;20060;-96
2022/11/27 12:54:41;;;;;;;7.30;2.47;;;;;;;;;;6154608;23;20531;-95
2022/11/27 12:57:18;;;;;;;7.57;3.10;;;;;;;;;;6178468;23;20690;-95
2022/11/27 12:59:51;;;;;;;9.48;3.50;;;;;;;;;;6180200;23;20009;-96
2022/11/27 13:02:49;;;;;;;11.70;3.65;;;;;;;;;;6176687;23;20001;-96
2022/11/27 13:05:19;;;;;;;9.77;2.63;;;;;;;;;;6112476;23;20020;-95
2022/11/27 13:08:04;;;;;;;8.25;2.42;;;;;;;;;;6176690;23;20016;-95
2022/11/27 13:10:49;;;;;;;10.38;2.83;;;;;;;;;;6180173;23;20016;-96
2022/11/27 13:13:15;;;;;;;7.45;2.28;;;;;;;;;;6173058;23;20100;-95
2022/11/27 13:16:03;;;;;;;7.97;2.88;;;;;;;;;;6175043;23;20395;-95
2022/11/27 13:18:32;;;;;;;6.53;3.13;;;;;;;;;;6173168;23;20067;-95
2022/11/27 13:21:03;;;;;;;7.38;3.05;;;;;;;;;;6175301;23;20055;-94
2022/11/27 13:23:33;;;;;;;12.40;2.70;;;;;;;;;;6174193;23;20045;-94
2022/11/27 13:26:01;;;;;;;7.85;2.53;;;;;;;;;;6178478;23;20005;-95
2022/11/27 13:28:43;;;;;;;10.35;2.40;;;;;;;;;;6184543;23;20009;-95
2022/11/27 13:31:14;;;;;;;7.25;2.28;;;;;;;;;;6185961;23;20040;-96
2022/11/27 13:33:43;;;;;;;9.15;2.25;;;;;;;;;;6185676;23;20057;-96
2022/11/27 13:36:29;;;;;;;9.43;2.20;;;;;;;;;;6179206;23;20452;-95
2022/11/27 13:38:59;;;;;;;10.35;2.80;;;;;;;;;;6152765;23;20009;-95
2022/11/27 13:41:33;;;;;;;4.38;1.92;;;;;;;;;;6177708;23;20091;-95
2022/11/27 13:44:00;;;;;;;7.95;2.47;;;;;;;;;;6173045;23;20001;-90
2022/11/27 13:46:28;;;;;;;7.70;2.08;;;;;;;;;;6176284;23;20005;-94
2022/11/27 13:48:56;;;;;;;6.45;2.55;;;;;;;;;;6174979;23;20016;-90
2022/11/27 13:51:27;;;;;;;13.00;3.17;;;;;;;;;;6172712;23;20028;-94
2022/11/27 13:53:54;;;;;;;8.45;2.92;;;;;;;;;;6174691;23;20025;-94
2022/11/27 13:56:30;;;;;;;7.38;3.17;;;;;;;;;;6174035;23;20009;-93
2022/11/27 13:58:56;;;;;;;7.20;2.67;;;;;;;;;;6172737;23;20000;-93
2022/11/27 14:01:24;;;;;;;4.72;2.40;;;;;;;;;;6173115;23;20112;-95
2022/11/27 14:03:50;;;;;;;7.40;2.45;;;;;;;;;;6173129;23;20028;-96
2022/11/27 14:06:27;;;;;;;9.98;2.50;;;;;;;;;;6175246;23;20100;-95
2022/11/27 14:08:53;;;;;;;7.90;2.85;;;;;;;;;;6172526;23;20001;-96
2022/11/27 14:11:30;;;;;;;8.05;2.63;;;;;;;;;;6172379;23;20040;-96
2022/11/27 14:13:57;;;;;;;6.03;2.30;;;;;;;;;;6171994;23;20338;-95
2022/11/27 14:16:30;;;;;;;6.28;2.40;;;;;;;;;;6170653;23;20071;-94
2022/11/27 14:19:16;;;;;;;4.07;2.50;;;;;;;;;;6173946;23;20016;-95
2022/11/27 14:21:43;;;;;;;6.70;3.10;;;;;;;;;;6172263;23;20016;-95
2022/11/27 14:24:21;;;;;;;7.93;3.13;;;;;;;;;;6172779;23;20059;-94
2022/11/27 14:26:47;;;;;;;7.60;2.90;;;;;;;;;;6174428;23;20012;-95
2022/11/27 14:29:14;;;;;;;4.82;2.25;;;;;;;;;;6174448;23;20001;-94
2022/11/27 14:31:40;;;;;;;6.47;2.50;;;;;;;;;;6172158;23;20040;-93
2022/11/27 14:34:24;;;;;;;7.15;2.30;;;;;;;;;;6173940;23;20009;-94
2022/11/27 14:36:53;;;;;;;6.68;2.30;;;;;;;;;;6174282;23;20386;-94
2022/11/27 14:39:36;;;;;;;8.00;2.63;;;;;;;;;;6173298;23;20001;-95
2022/11/27 14:42:04;;;;;;;10.98;2.75;;;;;;;;;;6175451;23;20043;-94
2022/11/27 14:44:31;;;;;;;8.05;2.45;;;;;;;;;;6177092;23;20300;-95
2022/11/27 14:46:58;;;;;;;7.75;3.42;;;;;;;;;;6176204;23;20411;-94
2022/11/27 14:49:27;;;;;;;5.72;2.35;;;;;;;;;;6147376;23;20140;-94
2022/11/27 14:51:54;;;;;;;13.48;2.78;;;;;;;;;;6173862;23;20571;-93
2022/11/27 14:54:24;;;;;;;4.95;2.65;;;;;;;;;;6173482;23;20546;-93
2022/11/27 14:56:51;;;;;;;10.88;3.20;;;;;;;;;;6173335;23;20044;-95
2022/11/27 14:59:18;;;;;;;6.93;2.60;;;;;;;;;;6174880;23;20310;-94
2022/11/27 15:01:48;;;;;;;7.32;2.58;;;;;;;;;;6171144;23;20044;-94
2022/11/27 15:04:43;;;;;;;6.30;3.17;;;;;;;;;;6173881;23;20005;-93
2022/11/27 15:07:17;;;;;;;11.77;3.30;;;;;;;;;;6156955;23;20372;-92